createdAt,value
2018-06-09T00:00:33.500Z,31.50
2018-06-09T00:03:02.613Z,34.93
2018-06-09T00:05:30.804Z,29.37
2018-06-09T00:07:59.040Z,30.57
2018-06-09T00:10:27.239Z,34.90
2018-06-09T00:12:55.462Z,36.57
2018-06-09T00:15:23.711Z,42.73
2018-06-09T00:17:51.923Z,41.30
2018-06-09T00:20:20.145Z,45.13
2018-06-09T00:22:48.356Z,49.10
2018-06-09T00:25:16.706Z,53.47
2018-06-09T00:27:44.908Z,45.23
2018-06-09T00:30:13.143Z,46.90
2018-06-09T00:32:41.365Z,50.20
2018-06-09T00:35:09.564Z,47.70
2018-06-09T00:37:37.763Z,45.13
2018-06-09T00:40:05.979Z,56.77
2018-06-09T00:42:34.184Z,61.63
2018-06-09T00:45:02.398Z,54.77
2018-06-09T00:47:30.621Z,50.37
2018-06-09T00:49:58.831Z,48.33
2018-06-09T00:52:27.061Z,43.87
2018-06-09T00:54:55.292Z,46.80
2018-06-09T00:57:23.499Z,42.47
2018-06-09T00:59:51.508Z,45.10
2018-06-09T01:02:19.720Z,48.97
2018-06-09T01:04:47.915Z,54.00
2018-06-09T01:07:16.176Z,55.73
2018-06-09T01:09:44.104Z,54.83
2018-06-09T01:12:12.319Z,53.10
2018-06-09T01:14:40.513Z,42.90
2018-06-09T01:17:08.731Z,47.37
2018-06-09T01:19:36.944Z,50.03
2018-06-09T01:22:05.341Z,45.77
2018-06-09T01:24:33.535Z,45.00
2018-06-09T01:27:01.771Z,40.10
2018-06-09T01:29:30.068Z,43.83
2018-06-09T01:31:58.288Z,40.20
2018-06-09T01:34:26.484Z,48.83
2018-06-09T01:36:54.700Z,48.90
2018-06-09T01:39:22.908Z,48.63
2018-06-09T01:41:51.126Z,44.07
2018-06-09T01:44:19.936Z,42.97
2018-06-09T01:46:48.180Z,44.20
2018-06-09T01:49:16.401Z,45.83
2018-06-09T01:51:44.656Z,48.00
2018-06-09T01:54:13.468Z,53.20
2018-06-09T01:56:41.672Z,53.90
2018-06-09T01:59:09.884Z,54.10
2018-06-09T02:01:38.091Z,51.17
2018-06-09T02:04:06.033Z,50.73
2018-06-09T02:06:34.260Z,53.97
2018-06-09T02:09:02.491Z,48.30
2018-06-09T02:11:30.708Z,46.80
2018-06-09T02:13:58.908Z,41.30
2018-06-09T02:16:27.107Z,38.23
2018-06-09T02:18:55.060Z,38.23
2018-06-09T02:21:23.283Z,40.40
2018-06-09T02:23:51.503Z,47.13
2018-06-09T02:26:19.709Z,45.60
2018-06-09T02:28:47.911Z,48.10
2018-06-09T02:31:16.714Z,45.80
2018-06-09T02:33:44.935Z,42.63
2018-06-09T02:36:13.129Z,46.97
2018-06-09T02:38:41.337Z,46.63
2018-06-09T02:41:09.571Z,49.70
2018-06-09T02:43:37.812Z,50.77
2018-06-09T02:46:06.021Z,52.93
2018-06-09T02:48:34.204Z,55.43
2018-06-09T02:51:02.443Z,52.93
2018-06-09T02:53:30.466Z,56.27
2018-06-09T02:55:58.692Z,58.27
2018-06-09T02:58:27.073Z,56.10
2018-06-09T03:00:55.272Z,54.67
2018-06-09T03:03:23.472Z,50.80
2018-06-09T03:05:51.707Z,52.00
2018-06-09T03:08:19.935Z,48.43
2018-06-09T03:10:48.138Z,51.77
2018-06-09T03:13:16.360Z,58.40
2018-06-09T03:15:44.589Z,53.53
2018-06-09T03:18:12.780Z,55.33
2018-06-09T03:20:40.992Z,58.50
2018-06-09T03:23:09.212Z,61.03
2018-06-09T03:25:37.432Z,51.30
2018-06-09T03:28:05.627Z,45.87
2018-06-09T03:30:33.613Z,47.40
2018-06-09T03:33:01.820Z,45.77
2018-06-09T03:35:30.065Z,44.57
2018-06-09T03:37:59.301Z,50.70
2018-06-09T03:40:27.484Z,47.43
2018-06-09T03:42:55.717Z,44.87
2018-06-09T03:45:23.916Z,51.07
2018-06-09T03:47:52.157Z,56.50
2018-06-09T03:50:20.387Z,50.37
2018-06-09T03:52:48.592Z,47.50
2018-06-09T03:55:17.081Z,46.77
2018-06-09T03:57:45.292Z,48.87
2018-06-09T04:00:13.519Z,50.63
2018-06-09T04:02:41.463Z,46.77
2018-06-09T04:05:09.672Z,50.20
2018-06-09T04:07:37.910Z,48.10
2018-06-09T04:10:06.110Z,43.43
2018-06-09T04:12:34.368Z,46.43
2018-06-09T04:15:02.676Z,45.97
2018-06-09T04:17:30.880Z,44.90
2018-06-09T04:19:59.079Z,40.53
2018-06-09T04:22:27.290Z,39.73
2018-06-09T04:24:55.508Z,38.10
2018-06-09T04:27:23.702Z,38.87
2018-06-09T04:29:51.919Z,37.63
2018-06-09T04:32:20.205Z,35.27
2018-06-09T04:34:48.383Z,35.23
2018-06-09T04:37:16.593Z,37.40
2018-06-09T04:39:44.543Z,38.83
2018-06-09T04:42:12.764Z,39.93
2018-06-09T04:44:40.992Z,36.60
2018-06-09T04:47:09.189Z,36.57
2018-06-09T04:49:37.424Z,33.50
2018-06-09T04:52:05.620Z,39.10
2018-06-09T04:54:33.872Z,41.00
2018-06-09T04:57:02.096Z,36.37
2018-06-09T04:59:30.300Z,38.70
2018-06-09T05:01:58.524Z,37.40
2018-06-09T05:04:26.773Z,40.93
2018-06-09T05:06:54.968Z,37.43
2018-06-09T05:09:23.164Z,37.87
2018-06-09T05:11:51.463Z,39.73
2018-06-09T05:14:19.684Z,38.57
2018-06-09T05:16:47.887Z,41.10
2018-06-09T05:19:15.823Z,38.63
2018-06-09T05:21:44.073Z,35.00
2018-06-09T05:24:12.264Z,32.87
2018-06-09T05:26:40.464Z,30.63
2018-06-09T05:29:36.612Z,25.73
2018-06-09T05:32:05.095Z,28.57
2018-06-09T05:34:33.497Z,31.43
2018-06-09T05:37:01.696Z,30.60
2018-06-09T05:39:29.919Z,26.03
2018-06-09T05:41:58.283Z,23.93
2018-06-09T05:44:26.849Z,20.77
2018-06-09T05:46:55.049Z,20.17
2018-06-09T05:49:23.437Z,20.37
2018-06-09T05:51:51.639Z,19.50
2018-06-09T05:54:20.156Z,18.43
2018-06-09T05:56:48.922Z,18.63
2018-06-09T05:59:17.128Z,19.50
2018-06-09T06:01:45.321Z,17.33
2018-06-09T06:04:13.697Z,17.20
2018-06-09T06:06:41.996Z,18.27
2018-06-09T06:09:10.205Z,16.47
2018-06-09T06:11:38.732Z,17.13
2018-06-09T06:14:06.933Z,16.33
2018-06-09T06:16:35.137Z,16.10
2018-06-09T06:19:03.357Z,16.40
2018-06-09T06:21:31.612Z,16.87
2018-06-09T06:23:59.900Z,15.37
2018-06-09T06:26:28.199Z,15.10
2018-06-09T06:28:56.434Z,14.77
2018-06-09T06:31:24.641Z,13.80
2018-06-09T06:33:52.855Z,14.93
2018-06-09T06:36:21.040Z,15.10
2018-06-09T06:38:49.253Z,14.83
2018-06-09T06:41:17.484Z,13.80
2018-06-09T06:43:45.699Z,14.20
2018-06-09T06:46:14.028Z,14.63
2018-06-09T06:48:42.244Z,14.40
2018-06-09T06:51:10.466Z,14.57
2018-06-09T06:53:38.692Z,14.30
2018-06-09T06:56:06.930Z,13.10
2018-06-09T06:58:35.147Z,13.47
2018-06-09T07:01:03.458Z,12.03
2018-06-09T07:03:31.606Z,12.63
2018-06-09T07:05:59.828Z,12.57
2018-06-09T07:08:27.788Z,13.00
2018-06-09T07:10:55.996Z,12.77
2018-06-09T07:13:24.304Z,12.30
2018-06-09T07:15:52.484Z,12.73
2018-06-09T07:18:20.718Z,13.73
2018-06-09T07:20:48.928Z,13.67
2018-06-09T07:23:17.141Z,13.37
2018-06-09T07:25:45.353Z,13.57
2018-06-09T07:28:13.555Z,12.63
2018-06-09T07:30:41.801Z,12.17
2018-06-09T07:33:09.787Z,13.43
2018-06-09T07:35:37.792Z,11.87
2018-06-09T07:38:05.984Z,11.57
2018-06-09T07:40:34.216Z,12.33
2018-06-09T07:43:02.416Z,12.97
2018-06-09T07:45:30.640Z,11.63
2018-06-09T07:47:58.886Z,11.13
2018-06-09T07:50:27.063Z,11.50
2018-06-09T07:52:55.621Z,12.13
2018-06-09T07:55:23.944Z,11.10
2018-06-09T07:57:52.172Z,11.63
2018-06-09T08:00:20.387Z,11.80
2018-06-09T08:02:48.712Z,11.50
2018-06-09T08:05:16.915Z,11.60
2018-06-09T08:07:45.172Z,10.57
2018-06-09T08:10:13.400Z,11.53
2018-06-09T08:12:41.605Z,10.53
2018-06-09T08:15:09.848Z,9.63
2018-06-09T08:17:38.055Z,10.40
2018-06-09T08:20:06.303Z,10.97
2018-06-09T08:22:34.511Z,10.00
2018-06-09T08:25:02.756Z,9.97
2018-06-09T08:27:30.979Z,11.40
2018-06-09T08:29:59.202Z,10.47
2018-06-09T08:32:27.441Z,10.20
2018-06-09T08:34:55.685Z,10.67
2018-06-09T08:37:23.687Z,10.23
2018-06-09T08:39:51.958Z,10.47
2018-06-09T08:42:20.168Z,9.10
2018-06-09T08:44:48.370Z,8.60
2018-06-09T08:47:16.577Z,9.07
2018-06-09T08:49:44.766Z,9.47
2018-06-09T08:52:12.997Z,10.10
2018-06-09T08:54:41.233Z,9.47
2018-06-09T08:57:09.428Z,10.07
2018-06-09T08:59:37.652Z,9.90
2018-06-09T09:02:05.892Z,9.63
2018-06-09T09:04:34.140Z,10.23
2018-06-09T09:07:02.400Z,10.90
2018-06-09T09:09:30.645Z,11.50
2018-06-09T09:11:59.939Z,11.43
2018-06-09T09:14:28.175Z,10.67
2018-06-09T09:16:56.409Z,10.83
2018-06-09T09:19:24.682Z,10.07
2018-06-09T09:21:52.888Z,10.90
2018-06-09T09:24:21.097Z,10.97
2018-06-09T09:26:49.344Z,10.83
2018-06-09T09:29:17.553Z,10.37
2018-06-09T09:31:45.787Z,9.87
2018-06-09T09:34:14.105Z,10.90
2018-06-09T09:36:42.055Z,10.10
2018-06-09T09:39:10.247Z,9.77
2018-06-09T09:41:38.478Z,10.17
2018-06-09T09:44:06.701Z,9.57
2018-06-09T09:46:34.895Z,10.97
2018-06-09T09:49:03.122Z,9.90
2018-06-09T09:51:31.312Z,9.87
2018-06-09T09:53:59.592Z,9.43
2018-06-09T09:56:27.867Z,10.77
2018-06-09T09:58:56.100Z,11.10
2018-06-09T10:01:24.304Z,10.03
2018-06-09T10:03:52.536Z,10.53
2018-06-09T10:06:20.937Z,10.63
2018-06-09T10:08:49.829Z,10.27
2018-06-09T10:11:18.025Z,9.87
2018-06-09T10:13:46.215Z,10.37
2018-06-09T10:16:14.427Z,9.77
2018-06-09T10:18:42.645Z,11.90
2018-06-09T10:21:10.860Z,10.90
2018-06-09T10:23:39.060Z,10.33
2018-06-09T10:26:07.280Z,10.10
2018-06-09T10:28:35.484Z,10.00
2018-06-09T10:31:03.695Z,10.40
2018-06-09T10:33:31.964Z,9.77
2018-06-09T10:36:00.298Z,10.10
2018-06-09T10:38:28.483Z,10.27
2018-06-09T10:40:56.708Z,9.53
2018-06-09T10:43:24.960Z,9.80
2018-06-09T10:45:53.140Z,9.77
2018-06-09T10:48:21.356Z,10.07
2018-06-09T10:50:49.630Z,9.83
2018-06-09T10:53:17.824Z,10.10
2018-06-09T10:55:46.099Z,10.20
2018-06-09T10:58:14.317Z,9.80
2018-06-09T11:00:42.527Z,10.07
2018-06-09T11:03:10.745Z,9.90
2018-06-09T11:05:38.959Z,10.40
2018-06-09T11:08:07.209Z,10.00
2018-06-09T11:10:35.424Z,10.43
2018-06-09T11:13:03.662Z,10.63
2018-06-09T11:15:31.884Z,10.57
2018-06-09T11:18:00.119Z,10.90
2018-06-09T11:20:28.325Z,10.40
2018-06-09T11:22:56.533Z,9.73
2018-06-09T11:25:24.744Z,9.53
2018-06-09T11:27:52.952Z,10.17
2018-06-09T11:30:21.184Z,10.80
2018-06-09T11:32:49.373Z,10.03
2018-06-09T11:35:17.597Z,10.33
2018-06-09T11:37:45.837Z,10.27
2018-06-09T11:40:14.053Z,10.13
2018-06-09T11:42:42.249Z,10.40
2018-06-09T11:45:10.489Z,9.30
2018-06-09T11:47:38.695Z,10.30
2018-06-09T11:50:06.893Z,10.60
2018-06-09T11:52:35.114Z,9.20
2018-06-09T11:55:03.341Z,9.03
2018-06-09T11:57:31.539Z,9.63
2018-06-09T11:59:59.760Z,9.43
2018-06-09T12:02:27.973Z,9.27
2018-06-09T12:04:56.178Z,9.53
2018-06-09T12:07:24.380Z,9.13
2018-06-09T12:09:52.624Z,8.73
2018-06-09T12:12:20.900Z,8.10
2018-06-09T12:14:49.099Z,9.33
2018-06-09T12:17:17.377Z,9.30
2018-06-09T12:19:45.511Z,8.60
2018-06-09T12:22:13.738Z,9.23
2018-06-09T12:24:42.551Z,9.53
2018-06-09T12:27:10.773Z,8.83
2018-06-09T12:29:39.021Z,8.83
2018-06-09T12:32:07.240Z,8.17
2018-06-09T12:34:35.416Z,8.23
2018-06-09T12:37:03.637Z,8.87
2018-06-09T12:39:31.836Z,9.63
2018-06-09T12:42:00.042Z,8.93
2018-06-09T12:44:28.282Z,9.20
2018-06-09T12:46:56.492Z,9.47
2018-06-09T12:49:24.689Z,9.03
2018-06-09T12:51:52.910Z,9.60
2018-06-09T12:54:21.095Z,9.40
2018-06-09T12:56:49.314Z,9.90
2018-06-09T12:59:17.534Z,9.07
2018-06-09T13:01:45.789Z,9.33
2018-06-09T13:04:14.043Z,8.90
2018-06-09T13:06:42.257Z,9.47
2018-06-09T13:09:10.497Z,9.13
2018-06-09T13:11:38.732Z,9.37
2018-06-09T13:14:07.060Z,9.40
2018-06-09T13:16:35.277Z,9.67
2018-06-09T13:19:03.467Z,9.10
2018-06-09T13:21:31.668Z,9.30
2018-06-09T13:23:59.940Z,8.67
2018-06-09T13:26:28.152Z,9.10
2018-06-09T13:28:56.335Z,9.33
2018-06-09T13:31:24.856Z,8.90
2018-06-09T13:33:53.089Z,9.80
2018-06-09T13:36:21.451Z,9.40
2018-06-09T13:41:23.223Z,10.03
2018-06-09T13:43:51.424Z,10.80
2018-06-09T13:46:19.644Z,10.47
2018-06-09T13:48:47.849Z,10.57
2018-06-09T13:51:16.049Z,10.03
2018-06-09T13:53:44.248Z,10.17
2018-06-09T13:56:12.489Z,11.30
2018-06-09T13:58:40.680Z,10.50
2018-06-09T14:01:08.913Z,10.93
2018-06-09T14:03:37.136Z,10.50
2018-06-09T14:06:05.355Z,11.33
2018-06-09T14:08:33.571Z,12.00
2018-06-09T14:11:02.488Z,11.30
2018-06-09T14:13:30.712Z,11.73
2018-06-09T14:15:58.948Z,10.90
2018-06-09T14:18:27.185Z,12.33
2018-06-09T14:20:55.380Z,11.37
2018-06-09T14:23:23.397Z,12.43
2018-06-09T14:25:51.603Z,13.20
2018-06-09T14:28:19.816Z,12.20
2018-06-09T14:30:48.053Z,11.73
2018-06-09T14:33:16.245Z,12.23
2018-06-09T14:35:44.532Z,12.80
2018-06-09T14:38:12.792Z,11.67
2018-06-09T14:40:41.001Z,11.97
2018-06-09T14:43:09.380Z,12.23
2018-06-09T14:45:37.312Z,12.70
2018-06-09T14:48:05.508Z,12.87
2018-06-09T14:50:33.703Z,10.97
2018-06-09T14:53:02.132Z,11.93
2018-06-09T14:55:30.357Z,12.33
2018-06-09T14:57:58.572Z,11.73
2018-06-09T15:00:26.796Z,10.90
2018-06-09T15:02:55.009Z,11.17
2018-06-09T15:05:23.200Z,11.13
2018-06-09T15:07:51.456Z,12.07
2018-06-09T15:10:19.653Z,12.17
2018-06-09T15:12:47.904Z,12.10
2018-06-09T15:15:15.847Z,11.20
2018-06-09T15:17:44.076Z,11.33
2018-06-09T15:20:12.302Z,12.00
2018-06-09T15:22:40.556Z,12.13
2018-06-09T15:25:08.810Z,12.33
2018-06-09T15:27:37.012Z,12.50
2018-06-09T15:30:05.212Z,11.40
2018-06-09T15:32:33.403Z,11.77
2018-06-09T15:35:02.485Z,11.57
2018-06-09T15:37:30.749Z,12.47
2018-06-09T15:39:59.015Z,12.23
2018-06-09T15:42:27.234Z,12.40
2018-06-09T15:44:55.441Z,13.00
2018-06-09T15:47:23.658Z,11.97
2018-06-09T15:49:51.877Z,12.10
2018-06-09T15:52:20.148Z,12.97
2018-06-09T15:54:48.452Z,12.93
2018-06-09T15:57:16.636Z,12.80
2018-06-09T15:59:44.832Z,13.03
2018-06-09T16:02:13.057Z,12.40
2018-06-09T16:04:41.269Z,12.40
2018-06-09T16:07:09.464Z,12.33
2018-06-09T16:09:37.669Z,12.67
2018-06-09T16:12:05.951Z,12.27
2018-06-09T16:14:34.191Z,12.57
2018-06-09T16:17:02.380Z,12.27
2018-06-09T16:19:30.610Z,12.23
2018-06-09T16:21:58.853Z,12.83
2018-06-09T16:24:27.164Z,13.83
2018-06-09T16:26:55.377Z,13.40
2018-06-09T16:29:23.684Z,13.90
2018-06-09T16:31:51.841Z,12.87
2018-06-09T16:34:20.076Z,13.07
2018-06-09T16:36:48.411Z,12.63
2018-06-09T16:39:16.628Z,12.73
2018-06-09T16:41:44.849Z,12.40
2018-06-09T16:44:13.061Z,12.43
2018-06-09T16:46:41.308Z,12.17
2018-06-09T16:49:09.576Z,12.57
2018-06-09T16:51:37.792Z,12.77
2018-06-09T16:54:06.032Z,12.33
2018-06-09T16:56:34.277Z,12.83
2018-06-09T16:59:02.569Z,13.07
2018-06-09T17:01:30.764Z,12.53
2018-06-09T17:03:58.975Z,12.80
2018-06-09T17:06:28.221Z,11.83
2018-06-09T17:08:56.497Z,9.47
2018-06-09T17:11:24.711Z,9.47
2018-06-09T17:13:52.923Z,8.27
2018-06-09T17:16:21.153Z,7.40
2018-06-09T17:18:49.391Z,6.80
2018-06-09T17:21:17.604Z,5.90
2018-06-09T17:23:45.795Z,5.60
2018-06-09T17:26:14.009Z,6.30
2018-06-09T17:28:42.232Z,6.17
2018-06-09T17:31:10.456Z,6.00
2018-06-09T17:33:38.693Z,7.10
2018-06-09T17:36:06.896Z,9.33
2018-06-09T17:38:35.080Z,5.70
2018-06-09T17:41:03.326Z,5.57
2018-06-09T17:43:31.544Z,4.83
2018-06-09T17:45:59.748Z,4.57
2018-06-09T17:48:27.972Z,5.27
2018-06-09T17:50:56.172Z,6.20
2018-06-09T17:53:24.399Z,6.87
2018-06-09T17:55:52.643Z,6.13
2018-06-09T17:58:20.932Z,6.20
2018-06-09T18:00:49.230Z,6.83
2018-06-09T18:03:17.459Z,6.20
2018-06-09T18:05:45.704Z,5.80
2018-06-09T18:08:13.911Z,6.27
2018-06-09T18:10:42.113Z,6.43
2018-06-09T18:13:10.331Z,7.07
2018-06-09T18:15:38.544Z,7.77
2018-06-09T18:18:06.792Z,8.30
2018-06-09T18:20:35.008Z,8.47
2018-06-09T18:23:03.261Z,9.20
2018-06-09T18:25:31.427Z,8.90
2018-06-09T18:27:59.631Z,8.37
2018-06-09T18:30:27.861Z,9.40
2018-06-09T18:32:56.120Z,10.07
2018-06-09T18:35:24.372Z,10.40
2018-06-09T18:37:52.628Z,10.87
2018-06-09T18:40:20.872Z,11.70
2018-06-09T18:42:49.076Z,11.53
2018-06-09T18:45:17.308Z,12.50
2018-06-09T18:47:45.600Z,11.87
2018-06-09T18:50:13.816Z,13.00
2018-06-09T18:52:42.037Z,11.97
2018-06-09T18:55:10.252Z,12.57
2018-06-09T18:57:38.500Z,12.87
2018-06-09T19:00:06.724Z,12.13
2018-06-09T19:02:34.947Z,13.53
2018-06-09T19:05:03.188Z,12.50
2018-06-09T19:07:31.407Z,11.17
2018-06-09T19:09:59.656Z,12.40
2018-06-09T19:12:27.896Z,12.70
2018-06-09T19:14:56.111Z,13.50
2018-06-09T19:17:24.334Z,13.13
2018-06-09T19:19:52.639Z,13.27
2018-06-09T19:22:20.838Z,13.57
2018-06-09T19:24:49.055Z,14.93
2018-06-09T19:27:17.285Z,15.03
2018-06-09T19:29:45.533Z,15.47
2018-06-09T19:32:13.752Z,15.67
2018-06-09T19:34:41.970Z,15.50
2018-06-09T19:37:10.164Z,15.70
2018-06-09T19:39:38.401Z,15.93
2018-06-09T19:42:06.608Z,15.77
2018-06-09T19:44:34.947Z,16.33
2018-06-09T19:47:03.165Z,16.97
2018-06-09T19:49:31.359Z,17.97
2018-06-09T19:51:59.607Z,17.40
2018-06-09T19:54:27.786Z,16.13
2018-06-09T19:56:56.005Z,16.70
2018-06-09T19:59:24.206Z,16.53
2018-06-09T20:01:52.533Z,16.93
2018-06-09T20:04:20.731Z,16.63
2018-06-09T20:06:48.965Z,16.37
2018-06-09T20:09:17.173Z,20.27
2018-06-09T20:11:45.396Z,19.90
2018-06-09T20:14:13.613Z,19.53
2018-06-09T20:16:41.834Z,20.70
2018-06-09T20:19:10.053Z,19.30
2018-06-09T20:21:38.395Z,20.60
2018-06-09T20:24:06.600Z,21.97
2018-06-09T20:26:35.812Z,21.57
2018-06-09T20:29:04.087Z,19.13
2018-06-09T20:31:32.369Z,17.97
2018-06-09T20:34:00.572Z,17.13
2018-06-09T20:36:28.816Z,16.57
2018-06-09T20:38:57.050Z,16.13
2018-06-09T20:41:25.279Z,15.63
2018-06-09T20:43:53.489Z,16.97
2018-06-09T20:46:21.725Z,14.40
2018-06-09T20:48:49.932Z,15.40
2018-06-09T20:51:18.184Z,15.23
2018-06-09T20:53:46.383Z,15.00
2018-06-09T20:56:14.578Z,15.40
2018-06-09T20:58:42.804Z,14.90
2018-06-09T21:01:11.009Z,14.97
2018-06-09T21:03:41.249Z,15.93
2018-06-09T21:06:09.519Z,16.37
2018-06-09T21:08:38.850Z,15.67
2018-06-09T21:11:07.240Z,15.43
2018-06-09T21:13:35.607Z,15.23
2018-06-09T21:16:04.892Z,17.17
2018-06-09T21:18:33.246Z,17.10
2018-06-09T21:21:01.521Z,17.57
2018-06-09T21:23:30.833Z,18.37
2018-06-09T21:25:59.120Z,19.83
2018-06-09T21:28:28.406Z,18.50
2018-06-09T21:31:00.907Z,19.23
2018-06-09T21:33:45.975Z,20.13
2018-06-09T21:36:18.509Z,19.03
2018-06-09T21:38:52.231Z,20.43
2018-06-09T21:41:22.508Z,19.73
2018-06-09T21:43:52.166Z,20.93
2018-06-09T21:46:26.046Z,22.40
2018-06-09T21:48:54.260Z,21.93
2018-06-09T21:51:22.608Z,22.50
2018-06-09T21:53:50.835Z,23.93
2018-06-09T21:56:19.080Z,24.20
2018-06-09T21:58:47.286Z,23.90
2018-06-09T22:01:15.498Z,23.67
2018-06-09T22:03:43.687Z,23.90
2018-06-09T22:06:12.915Z,22.23
2018-06-09T22:08:41.106Z,25.43
2018-06-09T22:11:09.438Z,29.23
2018-06-09T22:13:37.636Z,26.67
2018-06-09T22:16:05.827Z,27.13
2018-06-09T22:18:34.040Z,27.90
2018-06-09T22:21:02.229Z,26.70
2018-06-09T22:23:30.441Z,33.47
2018-06-09T22:25:58.680Z,36.60
2018-06-09T22:28:27.259Z,31.93
2018-06-09T22:30:55.466Z,34.17
2018-06-09T22:33:23.663Z,36.23
2018-06-09T22:35:51.871Z,28.90
2018-06-09T22:38:20.110Z,29.03
2018-06-09T22:40:48.343Z,26.70
2018-06-09T22:43:16.559Z,29.33
2018-06-09T22:45:44.786Z,30.33
2018-06-09T22:48:12.968Z,26.83
2018-06-09T22:50:41.777Z,31.53
2018-06-09T22:53:10.012Z,31.87
2018-06-09T22:55:38.227Z,31.30
2018-06-09T22:58:06.427Z,36.63
2018-06-09T23:00:54.564Z,36.00
2018-06-09T23:03:22.808Z,33.63
2018-06-09T23:05:51.116Z,35.37
2018-06-09T23:08:19.293Z,35.40
2018-06-09T23:10:47.487Z,37.63
2018-06-09T23:13:15.762Z,38.30
2018-06-09T23:15:43.963Z,37.83
2018-06-09T23:18:12.152Z,35.83
2018-06-09T23:20:40.367Z,33.97
2018-06-09T23:23:08.572Z,35.27
2018-06-09T23:25:36.899Z,32.50
2018-06-09T23:28:05.116Z,29.33
2018-06-09T23:30:33.324Z,27.43
2018-06-09T23:33:01.663Z,25.80
2018-06-09T23:35:29.833Z,25.63
2018-06-09T23:37:58.024Z,24.87
2018-06-09T23:40:26.324Z,24.63
2018-06-09T23:42:54.483Z,25.37
2018-06-09T23:45:22.659Z,24.33
2018-06-09T23:47:50.876Z,25.10
2018-06-09T23:50:19.070Z,24.93
2018-06-09T23:52:47.278Z,24.13
2018-06-09T23:55:15.507Z,27.37
2018-06-09T23:57:43.707Z,23.63
